Time,TemperatureF,DewpointF,PressureIn,WindDirection,WindDirectionDegrees,WindSpeedMPH,WindSpeedGustMPH,Humidity,HourlyPrecipIn,Conditions,Clouds,dailyrainin,SoftwareType,DateUTC
2013-04-08 00:02:00,57.0,41.0,-100.00,ESE,120,5.0,7.0,56,0.00,,,-99.99,,2013-04-08 05:02:00,
2013-04-08 00:12:00,57.0,42.0,-100.00,SE,130,6.0,7.0,56,0.00,,,-99.99,,2013-04-08 05:12:00,
2013-04-08 00:22:00,57.0,42.0,-100.00,SE,130,6.0,7.0,56,0.00,,,-99.99,,2013-04-08 05:22:00,
2013-04-08 00:32:00,58.0,43.0,-100.00,SE,135,10.0,12.0,56,0.01,,,-99.99,,2013-04-08 05:32:00,
2013-04-08 00:42:00,56.0,43.0,-100.00,SSE,160,7.0,13.0,61,0.01,,,-99.99,,2013-04-08 05:42:00,
2013-04-08 00:52:00,56.0,44.0,-100.00,South,175,8.0,10.0,65,0.00,,,-99.99,,2013-04-08 05:52:00,
2013-04-08 01:02:00,56.0,44.0,-100.00,South,175,8.0,10.0,65,0.00,,,-99.99,,2013-04-08 06:02:00,
2013-04-08 01:12:00,57.0,45.0,-100.00,SSW,200,7.0,17.0,63,0.00,,,-99.99,,2013-04-08 06:12:00,
2013-04-08 01:22:00,57.0,45.0,-100.00,South,190,7.0,9.0,63,0.00,,,-99.99,,2013-04-08 06:22:00,
2013-04-08 01:32:00,57.0,47.0,-100.00,SSW,205,6.0,8.0,68,0.00,,,-99.99,,2013-04-08 06:32:00,
2013-04-08 01:42:00,57.0,47.0,-100.00,SSW,205,6.0,8.0,68,0.00,,,-99.99,,2013-04-08 06:42:00,
2013-04-08 01:52:00,58.0,51.0,-100.00,SW,220,8.0,10.0,76,0.01,,,-99.99,,2013-04-08 06:52:00,
2013-04-08 02:02:00,58.0,51.0,-100.00,SW,220,8.0,10.0,76,0.01,,,-99.99,,2013-04-08 07:02:00,
2013-04-08 02:12:00,58.0,52.0,-100.00,SW,225,7.0,11.0,82,0.03,,,-99.99,,2013-04-08 07:12:00,
2013-04-08 02:22:00,57.0,53.0,-100.00,SW,220,9.0,12.0,87,0.04,,,-99.99,,2013-04-08 07:22:00,
2013-04-08 02:33:00,57.0,53.0,-100.00,SW,220,9.0,12.0,87,0.04,,,-99.99,,2013-04-08 07:33:00,
2013-04-08 03:02:00,56.0,55.0,-100.00,SSW,205,5.0,7.0,96,0.18,,,-99.99,,2013-04-08 08:02:00,
2013-04-08 03:12:00,56.0,55.0,-100.00,SSW,205,5.0,7.0,96,0.18,,,-99.99,,2013-04-08 08:12:00,
2013-04-08 03:22:00,56.0,55.0,-100.00,South,175,4.0,6.0,96,0.06,,,-99.99,,2013-04-08 08:22:00,
2013-04-08 03:32:00,55.0,54.0,-100.00,SE,140,1.0,4.0,97,0.01,,,-99.99,,2013-04-08 08:32:00,
2013-04-08 03:42:00,55.0,54.0,-100.00,SSE,165,0.0,3.0,97,0.00,,,-99.99,,2013-04-08 08:42:00,
2013-04-08 03:52:00,55.0,54.0,-100.00,WNW,295,2.0,2.0,97,0.06,,,-99.99,,2013-04-08 08:52:00,
2013-04-08 04:02:00,55.0,54.0,-100.00,WNW,295,2.0,2.0,97,0.06,,,-99.99,,2013-04-08 09:02:00,
2013-04-08 04:12:00,54.0,54.0,-100.00,NW,310,3.0,4.0,97,0.04,,,-99.99,,2013-04-08 09:12:00,
2013-04-08 04:22:00,54.0,54.0,-100.00,NW,310,4.0,5.0,97,0.04,,,-99.99,,2013-04-08 09:22:00,
2013-04-08 04:33:00,55.0,54.0,-100.00,NW,310,4.0,6.0,98,0.03,,,-99.99,,2013-04-08 09:33:00,
2013-04-08 04:42:00,55.0,54.0,-100.00,NW,310,4.0,6.0,98,0.03,,,-99.99,,2013-04-08 09:42:00,
2013-04-08 04:52:00,54.0,54.0,-100.00,NW,315,4.0,6.0,98,0.00,,,-99.99,,2013-04-08 09:52:00,
2013-04-08 05:03:00,54.0,54.0,-100.00,NW,315,4.0,6.0,98,0.00,,,-99.99,,2013-04-08 10:03:00,
2013-04-08 05:13:00,54.0,54.0,-100.00,NW,320,3.0,9.0,98,0.01,,,-99.99,,2013-04-08 10:13:00,
2013-04-08 05:23:00,54.0,54.0,-100.00,NNW,345,4.0,6.0,98,0.00,,,-99.99,,2013-04-08 10:23:00,
2013-04-08 05:33:00,54.0,54.0,-100.00,NW,320,4.0,11.0,98,0.00,,,-99.99,,2013-04-08 10:33:00,
2013-04-08 05:42:00,54.0,54.0,-100.00,NW,320,4.0,11.0,98,0.00,,,-99.99,,2013-04-08 10:42:00,
2013-04-08 05:52:00,54.0,53.0,-100.00,NW,315,2.0,5.0,98,0.00,,,-99.99,,2013-04-08 10:52:00,
2013-04-08 06:02:00,54.0,53.0,-100.00,NW,315,2.0,5.0,98,0.00,,,-99.99,,2013-04-08 11:02:00,
2013-04-08 06:12:00,53.0,53.0,-100.00,NNW,335,2.0,3.0,98,0.00,,,-99.99,,2013-04-08 11:12:00,
2013-04-08 06:22:00,53.0,52.0,-100.00,NW,320,2.0,3.0,98,0.00,,,-99.99,,2013-04-08 11:22:00,
2013-04-08 06:32:00,51.0,51.0,-100.00,North,0,1.0,2.0,98,0.00,,,-99.99,,2013-04-08 11:32:00,
2013-04-08 06:42:00,51.0,51.0,-100.00,North,0,1.0,2.0,98,0.00,,,-99.99,,2013-04-08 11:42:00,
2013-04-08 06:52:00,51.0,51.0,-100.00,South,185,0.0,1.0,99,0.00,,,-99.99,,2013-04-08 11:52:00,
2013-04-08 07:03:00,51.0,51.0,-100.00,South,185,0.0,1.0,99,0.00,,,-99.99,,2013-04-08 12:03:00,
2013-04-08 07:12:00,47.0,47.0,-100.00,SSE,165,2.0,2.0,98,0.00,,,-99.99,,2013-04-08 12:12:00,
2013-04-08 07:22:00,47.0,47.0,-100.00,SSE,165,3.0,4.0,99,0.00,,,-99.99,,2013-04-08 12:22:00,
2013-04-08 07:33:00,49.0,49.0,-100.00,SSW,205,2.0,5.0,99,0.00,,,-99.99,,2013-04-08 12:33:00,
2013-04-08 07:42:00,49.0,49.0,-100.00,SSW,205,2.0,5.0,99,0.00,,,-99.99,,2013-04-08 12:42:00,
2013-04-08 07:52:00,51.0,50.0,-100.00,SSW,205,4.0,6.0,99,0.00,,,-99.99,,2013-04-08 12:52:00,
2013-04-08 08:03:00,51.0,50.0,-100.00,SSW,205,4.0,6.0,99,0.00,,,-99.99,,2013-04-08 13:03:00,
2013-04-08 08:22:00,52.0,52.0,-100.00,SW,220,3.0,4.0,99,0.00,,,-99.99,,2013-04-08 13:22:00,
2013-04-08 08:32:00,54.0,53.0,-100.00,SW,220,4.0,5.0,99,0.00,,,-99.99,,2013-04-08 13:32:00,
2013-04-08 08:42:00,54.0,53.0,-100.00,SW,220,4.0,5.0,99,0.00,,,-99.99,,2013-04-08 13:42:00,
2013-04-08 08:52:00,55.0,55.0,-100.00,SSW,210,4.0,6.0,99,0.00,,,-99.99,,2013-04-08 13:52:00,
2013-04-08 09:02:00,55.0,55.0,-100.00,SSW,210,4.0,6.0,99,0.00,,,-99.99,,2013-04-08 14:02:00,
2013-04-08 09:12:00,55.0,55.0,-100.00,South,190,4.0,6.0,99,0.00,,,-99.99,,2013-04-08 14:12:00,
2013-04-08 09:22:00,56.0,55.0,-100.00,SSW,200,3.0,5.0,99,0.00,,,-99.99,,2013-04-08 14:22:00,
2013-04-08 09:32:00,57.0,56.0,-100.00,SSW,210,3.0,4.0,99,0.00,,,-99.99,,2013-04-08 14:32:00,
2013-04-08 09:42:00,57.0,56.0,-100.00,SSW,210,3.0,4.0,99,0.00,,,-99.99,,2013-04-08 14:42:00,
2013-04-08 09:52:00,58.0,57.0,-100.00,South,190,3.0,5.0,98,0.00,,,-99.99,,2013-04-08 14:52:00,
2013-04-08 10:02:00,58.0,57.0,-100.00,South,190,3.0,5.0,98,0.00,,,-99.99,,2013-04-08 15:02:00,
2013-04-08 10:12:00,58.0,57.0,-100.00,SW,220,4.0,5.0,95,0.00,,,-99.99,,2013-04-08 15:12:00,
2013-04-08 10:22:00,59.0,56.0,-100.00,SW,235,4.0,6.0,89,0.00,,,-99.99,,2013-04-08 15:22:00,
2013-04-08 10:33:00,61.0,53.0,-100.00,SW,220,6.0,7.0,75,0.00,,,-99.99,,2013-04-08 15:33:00,
2013-04-08 10:42:00,61.0,53.0,-100.00,SW,220,6.0,7.0,75,0.00,,,-99.99,,2013-04-08 15:42:00,
2013-04-08 10:52:00,63.0,53.0,-100.00,SSW,205,6.0,8.0,69,0.00,,,-99.99,,2013-04-08 15:52:00,
2013-04-08 11:03:00,63.0,53.0,-100.00,SSW,205,6.0,8.0,69,0.00,,,-99.99,,2013-04-08 16:03:00,
2013-04-08 11:13:00,63.0,51.0,-100.00,SW,215,6.0,7.0,66,0.00,,,-99.99,,2013-04-08 16:13:00,
2013-04-08 11:22:00,64.0,51.0,-100.00,West,260,4.0,7.0,63,0.00,,,-99.99,,2013-04-08 16:22:00,
2013-04-08 11:32:00,64.0,50.0,-100.00,WSW,245,4.0,7.0,61,0.00,,,-99.99,,2013-04-08 16:32:00,
2013-04-08 11:42:00,64.0,51.0,-100.00,SSW,200,4.0,7.0,62,0.00,,,-99.99,,2013-04-08 16:42:00,
2013-04-08 11:52:00,64.0,52.0,-100.00,SW,225,6.0,9.0,64,0.00,,,-99.99,,2013-04-08 16:52:00,
2013-04-08 12:03:00,64.0,52.0,-100.00,SW,225,6.0,9.0,64,0.00,,,-99.99,,2013-04-08 17:03:00,
2013-04-08 12:12:00,64.0,52.0,-100.00,WSW,240,6.0,9.0,64,0.00,,,-99.99,,2013-04-08 17:12:00,
2013-04-08 12:22:00,66.0,53.0,-100.00,SSW,210,6.0,8.0,63,0.00,,,-99.99,,2013-04-08 17:22:00,
2013-04-08 12:32:00,65.0,52.0,-100.00,SSW,195,7.0,9.0,63,0.00,,,-99.99,,2013-04-08 17:32:00,
2013-04-08 12:43:00,65.0,52.0,-100.00,SSW,195,7.0,9.0,63,0.00,,,-99.99,,2013-04-08 17:43:00,
2013-04-08 12:52:00,66.0,52.0,-100.00,SW,220,6.0,9.0,60,0.00,,,-99.99,,2013-04-08 17:52:00,
2013-04-08 13:02:00,66.0,52.0,-100.00,SW,220,6.0,9.0,60,0.00,,,-99.99,,2013-04-08 18:02:00,
2013-04-08 13:12:00,67.0,52.0,-100.00,SSE,165,6.0,7.0,59,0.00,,,-99.99,,2013-04-08 18:12:00,
2013-04-08 13:22:00,67.0,52.0,-100.00,SW,225,5.0,8.0,58,0.00,,,-99.99,,2013-04-08 18:22:00,
2013-04-08 13:32:00,67.0,52.0,-100.00,SW,215,6.0,9.0,57,0.00,,,-99.99,,2013-04-08 18:32:00,
2013-04-08 13:42:00,67.0,52.0,-100.00,SW,215,6.0,9.0,57,0.00,,,-99.99,,2013-04-08 18:42:00,
2013-04-08 13:52:00,69.0,52.0,-100.00,SW,230,2.0,8.0,55,0.00,,,-99.99,,2013-04-08 18:52:00,
2013-04-08 14:02:00,69.0,52.0,-100.00,SW,230,2.0,8.0,55,0.00,,,-99.99,,2013-04-08 19:02:00,
2013-04-08 14:12:00,69.0,51.0,-100.00,South,185,4.0,6.0,52,0.00,,,-99.99,,2013-04-08 19:12:00,
2013-04-08 14:22:00,71.0,51.0,-100.00,SW,225,3.0,6.0,50,0.00,,,-99.99,,2013-04-08 19:22:00,
2013-04-08 14:33:00,71.0,51.0,-100.00,WSW,255,2.0,4.0,48,0.00,,,-99.99,,2013-04-08 19:33:00,
2013-04-08 14:42:00,71.0,51.0,-100.00,WSW,255,2.0,4.0,48,0.00,,,-99.99,,2013-04-08 19:42:00,
2013-04-08 14:52:00,72.0,50.0,-100.00,SE,135,3.0,7.0,45,0.00,,,-99.99,,2013-04-08 19:52:00,
2013-04-08 15:02:00,72.0,50.0,-100.00,SE,135,3.0,7.0,45,0.00,,,-99.99,,2013-04-08 20:02:00,
2013-04-08 15:12:00,72.0,50.0,-100.00,SSE,160,2.0,7.0,45,0.00,,,-99.99,,2013-04-08 20:12:00,
2013-04-08 15:22:00,72.0,50.0,-100.00,South,175,2.0,7.0,45,0.00,,,-99.99,,2013-04-08 20:22:00,
2013-04-08 15:33:00,73.0,51.0,-100.00,South,180,4.0,11.0,46,0.00,,,-99.99,,2013-04-08 20:33:00,
2013-04-08 15:42:00,73.0,51.0,-100.00,South,180,4.0,11.0,46,0.00,,,-99.99,,2013-04-08 20:42:00,
2013-04-08 15:52:00,72.0,51.0,-100.00,South,185,3.0,9.0,46,0.00,,,-99.99,,2013-04-08 20:52:00,
2013-04-08 16:02:00,72.0,51.0,-100.00,South,185,3.0,9.0,46,0.00,,,-99.99,,2013-04-08 21:02:00,
2013-04-08 16:12:00,72.0,51.0,-100.00,SSW,205,5.0,10.0,46,0.00,,,-99.99,,2013-04-08 21:12:00,
2013-04-08 16:22:00,73.0,51.0,-100.00,South,190,2.0,8.0,46,0.00,,,-99.99,,2013-04-08 21:22:00,
2013-04-08 16:32:00,73.0,52.0,-100.00,South,180,7.0,10.0,46,0.00,,,-99.99,,2013-04-08 21:32:00,
2013-04-08 16:43:00,73.0,52.0,-100.00,South,180,7.0,10.0,46,0.00,,,-99.99,,2013-04-08 21:43:00,
2013-04-08 16:52:00,73.0,52.0,-100.00,South,170,6.0,12.0,46,0.00,,,-99.99,,2013-04-08 21:52:00,
2013-04-08 17:03:00,73.0,52.0,-100.00,South,170,6.0,12.0,46,0.00,,,-99.99,,2013-04-08 22:03:00,
2013-04-08 17:13:00,73.0,52.0,-100.00,South,190,9.0,10.0,47,0.00,,,-99.99,,2013-04-08 22:13:00,
2013-04-08 17:22:00,72.0,51.0,-100.00,SSW,195,7.0,9.0,47,0.00,,,-99.99,,2013-04-08 22:22:00,
2013-04-08 17:32:00,72.0,51.0,-100.00,SSW,195,7.0,10.0,46,0.00,,,-99.99,,2013-04-08 22:32:00,
2013-04-08 17:42:00,72.0,51.0,-100.00,SSW,200,6.0,9.0,46,0.00,,,-99.99,,2013-04-08 22:42:00,
2013-04-08 17:52:00,72.0,51.0,-100.00,SSW,200,6.0,9.0,46,0.00,,,-99.99,,2013-04-08 22:52:00,
2013-04-08 18:02:00,72.0,51.0,-100.00,South,190,7.0,9.0,47,0.00,,,-99.99,,2013-04-08 23:02:00,
2013-04-08 18:12:00,72.0,52.0,-100.00,South,190,7.0,11.0,48,0.00,,,-99.99,,2013-04-08 23:12:00,
2013-04-08 18:22:00,72.0,52.0,-100.00,South,190,7.0,11.0,48,0.00,,,-99.99,,2013-04-08 23:22:00,
2013-04-08 18:32:00,71.0,52.0,-100.00,South,170,4.0,7.0,50,0.00,,,-99.99,,2013-04-08 23:32:00,
2013-04-08 18:42:00,71.0,52.0,-100.00,South,170,4.0,7.0,50,0.00,,,-99.99,,2013-04-08 23:42:00,
2013-04-08 18:52:00,70.0,52.0,-100.00,SE,135,2.0,6.0,52,0.00,,,-99.99,,2013-04-08 23:52:00,
2013-04-08 19:02:00,70.0,52.0,-100.00,SE,135,2.0,6.0,52,0.00,,,-99.99,,2013-04-09 00:02:00,
2013-04-08 19:12:00,70.0,53.0,-100.00,SE,130,3.0,4.0,54,0.00,,,-99.99,,2013-04-09 00:12:00,
2013-04-08 19:22:00,69.0,53.0,-100.00,ESE,115,3.0,4.0,55,0.00,,,-99.99,,2013-04-09 00:22:00,
2013-04-08 19:32:00,68.0,53.0,-100.00,ESE,115,2.0,4.0,58,0.00,,,-99.99,,2013-04-09 00:32:00,
2013-04-08 19:42:00,68.0,53.0,-100.00,ESE,115,2.0,4.0,58,0.00,,,-99.99,,2013-04-09 00:42:00,
2013-04-08 19:52:00,67.0,53.0,-100.00,SE,125,1.0,3.0,61,0.00,,,-99.99,,2013-04-09 00:52:00,
2013-04-08 20:02:00,67.0,53.0,-100.00,SE,125,1.0,3.0,61,0.00,,,-99.99,,2013-04-09 01:02:00,
2013-04-08 20:12:00,65.0,53.0,-100.00,SE,130,1.0,2.0,64,0.00,,,-99.99,,2013-04-09 01:12:00,
2013-04-08 20:22:00,65.0,53.0,-100.00,ESE,115,4.0,4.0,66,0.00,,,-99.99,,2013-04-09 01:22:00,
2013-04-08 20:33:00,64.0,54.0,-100.00,SE,125,6.0,6.0,71,0.00,,,-99.99,,2013-04-09 01:33:00,
2013-04-08 20:42:00,64.0,54.0,-100.00,SE,125,6.0,6.0,71,0.00,,,-99.99,,2013-04-09 01:42:00,
2013-04-08 20:52:00,63.0,55.0,-100.00,SE,135,5.0,7.0,74,0.00,,,-99.99,,2013-04-09 01:52:00,
2013-04-08 21:02:00,63.0,55.0,-100.00,SE,135,5.0,7.0,74,0.00,,,-99.99,,2013-04-09 02:02:00,
2013-04-08 21:12:00,63.0,55.0,-100.00,SE,125,5.0,6.0,76,0.00,,,-99.99,,2013-04-09 02:12:00,
2013-04-08 21:22:00,63.0,56.0,-100.00,ESE,115,4.0,5.0,78,0.00,,,-99.99,,2013-04-09 02:22:00,
2013-04-08 21:32:00,63.0,57.0,-100.00,ESE,110,4.0,4.0,81,0.00,,,-99.99,,2013-04-09 02:32:00,
2013-04-08 21:42:00,63.0,57.0,-100.00,ESE,110,4.0,4.0,81,0.00,,,-99.99,,2013-04-09 02:42:00,
2013-04-08 21:52:00,63.0,58.0,-100.00,ESE,115,4.0,6.0,83,0.00,,,-99.99,,2013-04-09 02:52:00,
2013-04-08 22:02:00,63.0,58.0,-100.00,ESE,115,4.0,6.0,83,0.00,,,-99.99,,2013-04-09 03:02:00,
2013-04-08 22:12:00,63.0,58.0,-100.00,East,90,4.0,5.0,83,0.00,,,-99.99,,2013-04-09 03:12:00,
2013-04-08 22:21:00,63.0,58.0,-100.00,East,90,4.0,6.0,85,0.00,,,-99.99,,2013-04-09 03:21:00,
2013-04-08 22:33:00,63.0,59.0,-100.00,East,95,4.0,5.0,86,0.00,,,-99.99,,2013-04-09 03:33:00,
2013-04-08 22:43:00,63.0,59.0,-100.00,East,95,4.0,5.0,86,0.00,,,-99.99,,2013-04-09 03:43:00,
2013-04-08 22:52:00,63.0,59.0,-100.00,East,100,5.0,6.0,87,0.00,,,-99.99,,2013-04-09 03:52:00,
2013-04-08 23:03:00,63.0,59.0,-100.00,East,100,5.0,6.0,87,0.00,,,-99.99,,2013-04-09 04:03:00,
2013-04-08 23:13:00,63.0,59.0,-100.00,ESE,110,4.0,6.0,87,0.00,,,-99.99,,2013-04-09 04:13:00,
2013-04-08 23:23:00,63.0,59.0,-100.00,ESE,120,4.0,6.0,87,0.10,,,-99.99,,2013-04-09 04:23:00,
2013-04-08 23:32:00,62.0,60.0,-100.00,East,95,6.0,7.0,92,0.03,,,-99.99,,2013-04-09 04:32:00,
2013-04-08 23:42:00,62.0,60.0,-100.00,East,95,6.0,7.0,92,0.03,,,-99.99,,2013-04-09 04:42:00,
2013-04-08 23:52:00,62.0,60.0,-100.00,East,95,6.0,7.0,92,0.03,,,-99.99,,2013-04-09 04:52:00,